sensor_id;sensor_type;location;lat;lon;timestamp;temperature;humidity
28524;DHT22;15734;50.904;6.922;2022-07-30T00:02:06;17.20;99.90
28524;DHT22;15734;50.904;6.922;2022-07-30T00:04:31;17.20;99.90
28524;DHT22;15734;50.904;6.922;2022-07-30T00:06:58;17.10;99.90
28524;DHT22;15734;50.904;6.922;2022-07-30T00:09:23;17.10;99.90
28524;DHT22;15734;50.904;6.922;2022-07-30T00:11:49;17.10;99.90
28524;DHT22;15734;50.904;6.922;2022-07-30T00:14:15;17.10;99.90
28524;DHT22;15734;50.904;6.922;2022-07-30T00:16:40;17.10;99.90
28524;DHT22;15734;50.904;6.922;2022-07-30T00:19:06;17.00;99.90
28524;DHT22;15734;50.904;6.922;2022-07-30T00:21:32;17.00;99.90
28524;DHT22;15734;50.904;6.922;2022-07-30T00:23:58;16.90;99.90
28524;DHT22;15734;50.904;6.922;2022-07-30T00:26:23;16.90;99.90
28524;DHT22;15734;50.904;6.922;2022-07-30T00:28:49;16.90;99.90
28524;DHT22;15734;50.904;6.922;2022-07-30T00:31:14;16.90;99.90
28524;DHT22;15734;50.904;6.922;2022-07-30T00:33:40;16.90;99.90
28524;DHT22;15734;50.904;6.922;2022-07-30T00:36:05;16.90;99.90
28524;DHT22;15734;50.904;6.922;2022-07-30T00:38:31;16.90;99.90
28524;DHT22;15734;50.904;6.922;2022-07-30T00:40:56;16.90;99.90
28524;DHT22;15734;50.904;6.922;2022-07-30T00:43:22;16.90;99.90
28524;DHT22;15734;50.904;6.922;2022-07-30T00:45:48;17.00;99.90
28524;DHT22;15734;50.904;6.922;2022-07-30T00:48:14;17.00;99.90
28524;DHT22;15734;50.904;6.922;2022-07-30T00:50:39;17.10;99.90
28524;DHT22;15734;50.904;6.922;2022-07-30T00:53:06;17.20;99.90
28524;DHT22;15734;50.904;6.922;2022-07-30T00:55:32;17.30;99.90
28524;DHT22;15734;50.904;6.922;2022-07-30T00:57:58;17.30;99.90
28524;DHT22;15734;50.904;6.922;2022-07-30T01:00:24;17.30;99.90
28524;DHT22;15734;50.904;6.922;2022-07-30T01:02:50;17.40;99.90
28524;DHT22;15734;50.904;6.922;2022-07-30T01:05:15;17.40;99.90
28524;DHT22;15734;50.904;6.922;2022-07-30T01:07:42;17.40;99.90
28524;DHT22;15734;50.904;6.922;2022-07-30T01:10:09;17.50;99.90
28524;DHT22;15734;50.904;6.922;2022-07-30T01:12:36;17.50;99.90
28524;DHT22;15734;50.904;6.922;2022-07-30T01:15:04;17.50;99.90
28524;DHT22;15734;50.904;6.922;2022-07-30T01:17:31;17.50;99.90
28524;DHT22;15734;50.904;6.922;2022-07-30T01:20:01;17.50;99.90
28524;DHT22;15734;50.904;6.922;2022-07-30T01:25:07;17.60;99.90
28524;DHT22;15734;50.904;6.922;2022-07-30T01:27:42;17.60;99.90
28524;DHT22;15734;50.904;6.922;2022-07-30T01:30:09;17.60;99.90
28524;DHT22;15734;50.904;6.922;2022-07-30T01:32:39;17.60;99.90
28524;DHT22;15734;50.904;6.922;2022-07-30T01:35:08;17.70;99.90
28524;DHT22;15734;50.904;6.922;2022-07-30T01:37:34;17.60;99.90
28524;DHT22;15734;50.904;6.922;2022-07-30T01:40:02;17.70;99.90
28524;DHT22;15734;50.904;6.922;2022-07-30T01:42:28;17.70;99.90
28524;DHT22;15734;50.904;6.922;2022-07-30T01:44:56;17.70;99.90
28524;DHT22;15734;50.904;6.922;2022-07-30T01:47:22;17.70;99.90
28524;DHT22;15734;50.904;6.922;2022-07-30T01:49:50;17.70;99.90
28524;DHT22;15734;50.904;6.922;2022-07-30T01:52:17;17.70;99.90
28524;DHT22;15734;50.904;6.922;2022-07-30T01:54:45;17.70;99.90
28524;DHT22;15734;50.904;6.922;2022-07-30T01:57:13;17.70;99.90
28524;DHT22;15734;50.904;6.922;2022-07-30T01:59:42;17.80;99.90
28524;DHT22;15734;50.904;6.922;2022-07-30T02:02:07;17.70;99.90
28524;DHT22;15734;50.904;6.922;2022-07-30T02:04:33;17.70;99.90
28524;DHT22;15734;50.904;6.922;2022-07-30T02:07:13;17.70;99.90
28524;DHT22;15734;50.904;6.922;2022-07-30T02:09:50;17.70;99.90
28524;DHT22;15734;50.904;6.922;2022-07-30T02:12:17;17.70;99.90
28524;DHT22;15734;50.904;6.922;2022-07-30T02:17:38;17.60;99.90
28524;DHT22;15734;50.904;6.922;2022-07-30T02:20:06;17.60;99.90
28524;DHT22;15734;50.904;6.922;2022-07-30T02:22:34;17.60;99.90
28524;DHT22;15734;50.904;6.922;2022-07-30T02:25:01;17.60;99.90
28524;DHT22;15734;50.904;6.922;2022-07-30T02:27:30;17.50;99.90
28524;DHT22;15734;50.904;6.922;2022-07-30T02:29:58;17.50;99.90
28524;DHT22;15734;50.904;6.922;2022-07-30T02:32:27;17.50;99.90
28524;DHT22;15734;50.904;6.922;2022-07-30T02:34:57;17.50;99.90
28524;DHT22;15734;50.904;6.922;2022-07-30T02:37:26;17.40;99.90
28524;DHT22;15734;50.904;6.922;2022-07-30T02:39:52;17.40;99.90
28524;DHT22;15734;50.904;6.922;2022-07-30T02:42:20;17.40;99.90
28524;DHT22;15734;50.904;6.922;2022-07-30T02:44:47;17.30;99.90
28524;DHT22;15734;50.904;6.922;2022-07-30T02:47:15;17.30;99.90
28524;DHT22;15734;50.904;6.922;2022-07-30T02:49:43;17.30;99.90
28524;DHT22;15734;50.904;6.922;2022-07-30T02:52:11;17.40;99.90
28524;DHT22;15734;50.904;6.922;2022-07-30T02:54:41;17.30;99.90
28524;DHT22;15734;50.904;6.922;2022-07-30T02:57:08;17.30;99.90
28524;DHT22;15734;50.904;6.922;2022-07-30T02:59:35;17.30;99.90
28524;DHT22;15734;50.904;6.922;2022-07-30T03:02:02;17.20;99.90
28524;DHT22;15734;50.904;6.922;2022-07-30T03:04:30;17.20;99.90
28524;DHT22;15734;50.904;6.922;2022-07-30T03:06:58;17.10;99.90
28524;DHT22;15734;50.904;6.922;2022-07-30T03:09:25;17.20;99.90
28524;DHT22;15734;50.904;6.922;2022-07-30T03:11:51;17.20;99.90
28524;DHT22;15734;50.904;6.922;2022-07-30T03:14:18;17.20;99.90
28524;DHT22;15734;50.904;6.922;2022-07-30T03:16:49;17.20;99.90
28524;DHT22;15734;50.904;6.922;2022-07-30T03:19:16;17.20;99.90
28524;DHT22;15734;50.904;6.922;2022-07-30T03:21:43;17.20;99.90
28524;DHT22;15734;50.904;6.922;2022-07-30T03:24:11;17.30;99.90
28524;DHT22;15734;50.904;6.922;2022-07-30T03:26:38;17.20;99.90
28524;DHT22;15734;50.904;6.922;2022-07-30T03:29:06;17.20;99.90
28524;DHT22;15734;50.904;6.922;2022-07-30T03:31:32;17.20;99.90
28524;DHT22;15734;50.904;6.922;2022-07-30T03:33:58;17.10;99.90
28524;DHT22;15734;50.904;6.922;2022-07-30T03:36:25;17.10;99.90
28524;DHT22;15734;50.904;6.922;2022-07-30T03:38:51;17.10;99.90
28524;DHT22;15734;50.904;6.922;2022-07-30T03:41:17;17.10;99.90
28524;DHT22;15734;50.904;6.922;2022-07-30T03:43:44;17.10;99.90
28524;DHT22;15734;50.904;6.922;2022-07-30T03:46:11;17.00;99.90
28524;DHT22;15734;50.904;6.922;2022-07-30T03:48:37;17.00;99.90
28524;DHT22;15734;50.904;6.922;2022-07-30T03:51:05;17.00;99.90
28524;DHT22;15734;50.904;6.922;2022-07-30T03:53:31;17.00;99.90
28524;DHT22;15734;50.904;6.922;2022-07-30T03:55:57;16.90;99.90
28524;DHT22;15734;50.904;6.922;2022-07-30T03:58:23;16.90;99.90
28524;DHT22;15734;50.904;6.922;2022-07-30T04:00:49;16.80;99.90
28524;DHT22;15734;50.904;6.922;2022-07-30T04:03:29;16.80;99.90
28524;DHT22;15734;50.904;6.922;2022-07-30T04:05:55;16.80;99.90
28524;DHT22;15734;50.904;6.922;2022-07-30T04:08:20;16.70;99.90
28524;DHT22;15734;50.904;6.922;2022-07-30T04:10:47;16.60;99.90
28524;DHT22;15734;50.904;6.922;2022-07-30T04:13:13;16.50;99.90
28524;DHT22;15734;50.904;6.922;2022-07-30T04:15:54;16.40;99.90
28524;DHT22;15734;50.904;6.922;2022-07-30T04:18:23;16.30;99.90
28524;DHT22;15734;50.904;6.922;2022-07-30T04:20:52;16.40;99.90
28524;DHT22;15734;50.904;6.922;2022-07-30T04:23:19;16.40;99.90
28524;DHT22;15734;50.904;6.922;2022-07-30T04:25:45;16.40;99.90
28524;DHT22;15734;50.904;6.922;2022-07-30T04:28:11;16.40;99.90
28524;DHT22;15734;50.904;6.922;2022-07-30T04:30:37;16.40;99.90
28524;DHT22;15734;50.904;6.922;2022-07-30T04:33:04;16.40;99.90
28524;DHT22;15734;50.904;6.922;2022-07-30T04:35:31;16.40;99.90
28524;DHT22;15734;50.904;6.922;2022-07-30T04:37:58;16.40;99.90
28524;DHT22;15734;50.904;6.922;2022-07-30T04:40:24;16.40;99.90
28524;DHT22;15734;50.904;6.922;2022-07-30T04:42:50;16.40;99.90
28524;DHT22;15734;50.904;6.922;2022-07-30T04:45:16;16.40;99.90
28524;DHT22;15734;50.904;6.922;2022-07-30T04:47:44;16.40;99.90
28524;DHT22;15734;50.904;6.922;2022-07-30T04:50:11;16.40;99.90
28524;DHT22;15734;50.904;6.922;2022-07-30T04:52:38;16.40;99.90
28524;DHT22;15734;50.904;6.922;2022-07-30T04:55:05;16.40;99.90
28524;DHT22;15734;50.904;6.922;2022-07-30T04:57:35;16.40;99.90
28524;DHT22;15734;50.904;6.922;2022-07-30T05:00:02;16.50;99.90
28524;DHT22;15734;50.904;6.922;2022-07-30T05:02:29;16.50;99.90
28524;DHT22;15734;50.904;6.922;2022-07-30T05:04:56;16.60;99.90
28524;DHT22;15734;50.904;6.922;2022-07-30T05:07:24;16.60;99.90
28524;DHT22;15734;50.904;6.922;2022-07-30T05:09:50;16.60;99.90
28524;DHT22;15734;50.904;6.922;2022-07-30T05:12:15;16.70;99.90
28524;DHT22;15734;50.904;6.922;2022-07-30T05:14:41;16.70;99.90
28524;DHT22;15734;50.904;6.922;2022-07-30T05:17:06;16.70;99.90
28524;DHT22;15734;50.904;6.922;2022-07-30T05:19:32;16.70;99.90
28524;DHT22;15734;50.904;6.922;2022-07-30T05:21:58;16.70;99.90
28524;DHT22;15734;50.904;6.922;2022-07-30T05:24:23;16.70;99.90
28524;DHT22;15734;50.904;6.922;2022-07-30T05:26:49;16.70;99.90
28524;DHT22;15734;50.904;6.922;2022-07-30T05:29:14;16.70;99.90
28524;DHT22;15734;50.904;6.922;2022-07-30T05:31:40;16.80;99.90
28524;DHT22;15734;50.904;6.922;2022-07-30T05:34:05;16.80;99.90
28524;DHT22;15734;50.904;6.922;2022-07-30T05:36:31;16.90;99.90
28524;DHT22;15734;50.904;6.922;2022-07-30T05:38:57;16.90;99.90
28524;DHT22;15734;50.904;6.922;2022-07-30T05:41:22;16.90;99.90
28524;DHT22;15734;50.904;6.922;2022-07-30T05:43:48;17.00;99.90
28524;DHT22;15734;50.904;6.922;2022-07-30T05:46:13;17.00;99.90
28524;DHT22;15734;50.904;6.922;2022-07-30T05:48:39;17.00;99.90
28524;DHT22;15734;50.904;6.922;2022-07-30T05:51:05;17.10;99.90
28524;DHT22;15734;50.904;6.922;2022-07-30T05:53:30;17.10;99.90
28524;DHT22;15734;50.904;6.922;2022-07-30T05:55:57;17.10;99.90
28524;DHT22;15734;50.904;6.922;2022-07-30T05:58:22;17.10;99.90
28524;DHT22;15734;50.904;6.922;2022-07-30T06:00:48;17.20;99.90
28524;DHT22;15734;50.904;6.922;2022-07-30T06:03:13;17.20;99.90
28524;DHT22;15734;50.904;6.922;2022-07-30T06:05:39;17.20;99.90
28524;DHT22;15734;50.904;6.922;2022-07-30T06:08:05;17.30;99.90
28524;DHT22;15734;50.904;6.922;2022-07-30T06:10:31;17.30;99.90
28524;DHT22;15734;50.904;6.922;2022-07-30T06:12:56;17.40;99.90
28524;DHT22;15734;50.904;6.922;2022-07-30T06:15:22;17.40;99.90
28524;DHT22;15734;50.904;6.922;2022-07-30T06:17:48;17.40;99.90
28524;DHT22;15734;50.904;6.922;2022-07-30T06:20:15;17.40;99.90
28524;DHT22;15734;50.904;6.922;2022-07-30T06:22:41;17.50;99.90
28524;DHT22;15734;50.904;6.922;2022-07-30T06:25:07;17.50;99.90
28524;DHT22;15734;50.904;6.922;2022-07-30T06:27:34;17.50;99.90
28524;DHT22;15734;50.904;6.922;2022-07-30T06:30:01;17.50;99.90
28524;DHT22;15734;50.904;6.922;2022-07-30T06:32:27;17.50;99.90
28524;DHT22;15734;50.904;6.922;2022-07-30T06:34:53;17.40;99.90
28524;DHT22;15734;50.904;6.922;2022-07-30T06:37:19;17.50;99.90
28524;DHT22;15734;50.904;6.922;2022-07-30T06:39:44;17.60;99.90
28524;DHT22;15734;50.904;6.922;2022-07-30T06:42:10;17.60;99.90
28524;DHT22;15734;50.904;6.922;2022-07-30T06:44:35;17.60;99.90
28524;DHT22;15734;50.904;6.922;2022-07-30T06:47:01;17.60;99.90
28524;DHT22;15734;50.904;6.922;2022-07-30T06:49:26;17.70;99.90
28524;DHT22;15734;50.904;6.922;2022-07-30T06:51:52;17.70;99.90
28524;DHT22;15734;50.904;6.922;2022-07-30T06:54:17;17.80;99.90
28524;DHT22;15734;50.904;6.922;2022-07-30T06:56:43;17.90;99.90
28524;DHT22;15734;50.904;6.922;2022-07-30T06:59:08;17.90;99.90
28524;DHT22;15734;50.904;6.922;2022-07-30T07:01:34;17.90;99.90
28524;DHT22;15734;50.904;6.922;2022-07-30T07:03:59;17.90;99.90
28524;DHT22;15734;50.904;6.922;2022-07-30T07:06:25;18.00;99.90
28524;DHT22;15734;50.904;6.922;2022-07-30T07:08:50;18.10;99.90
28524;DHT22;15734;50.904;6.922;2022-07-30T07:11:16;18.00;99.90
28524;DHT22;15734;50.904;6.922;2022-07-30T07:13:41;18.10;99.90
28524;DHT22;15734;50.904;6.922;2022-07-30T07:16:07;18.00;99.90
28524;DHT22;15734;50.904;6.922;2022-07-30T07:18:33;18.00;99.90
28524;DHT22;15734;50.904;6.922;2022-07-30T07:20:58;18.10;99.90
28524;DHT22;15734;50.904;6.922;2022-07-30T07:23:24;18.20;99.90
28524;DHT22;15734;50.904;6.922;2022-07-30T07:25:49;18.20;99.90
28524;DHT22;15734;50.904;6.922;2022-07-30T07:28:15;18.30;99.90
28524;DHT22;15734;50.904;6.922;2022-07-30T07:30:41;18.30;99.90
28524;DHT22;15734;50.904;6.922;2022-07-30T07:33:08;18.30;99.90
28524;DHT22;15734;50.904;6.922;2022-07-30T07:35:33;18.40;99.90
28524;DHT22;15734;50.904;6.922;2022-07-30T07:37:59;18.40;99.90
28524;DHT22;15734;50.904;6.922;2022-07-30T07:40:25;18.60;99.90
28524;DHT22;15734;50.904;6.922;2022-07-30T07:42:50;18.60;99.90
28524;DHT22;15734;50.904;6.922;2022-07-30T07:45:16;18.60;99.90
28524;DHT22;15734;50.904;6.922;2022-07-30T07:47:46;18.60;99.90
28524;DHT22;15734;50.904;6.922;2022-07-30T07:50:14;18.70;99.90
28524;DHT22;15734;50.904;6.922;2022-07-30T07:52:40;18.80;99.90
28524;DHT22;15734;50.904;6.922;2022-07-30T07:55:06;18.80;99.90
28524;DHT22;15734;50.904;6.922;2022-07-30T07:57:40;18.90;99.90
28524;DHT22;15734;50.904;6.922;2022-07-30T08:00:08;19.00;99.90
28524;DHT22;15734;50.904;6.922;2022-07-30T08:02:34;19.00;99.90
28524;DHT22;15734;50.904;6.922;2022-07-30T08:04:59;19.00;99.90
28524;DHT22;15734;50.904;6.922;2022-07-30T08:07:25;19.00;99.90
28524;DHT22;15734;50.904;6.922;2022-07-30T08:09:51;19.00;99.90
28524;DHT22;15734;50.904;6.922;2022-07-30T08:12:16;19.00;99.90
28524;DHT22;15734;50.904;6.922;2022-07-30T08:14:42;19.10;99.90
28524;DHT22;15734;50.904;6.922;2022-07-30T08:17:07;19.20;99.90
28524;DHT22;15734;50.904;6.922;2022-07-30T08:19:33;19.30;99.90
28524;DHT22;15734;50.904;6.922;2022-07-30T08:21:59;19.30;99.90
28524;DHT22;15734;50.904;6.922;2022-07-30T08:24:24;19.50;99.90
28524;DHT22;15734;50.904;6.922;2022-07-30T08:26:50;19.50;99.90
28524;DHT22;15734;50.904;6.922;2022-07-30T08:29:16;19.50;99.90
28524;DHT22;15734;50.904;6.922;2022-07-30T08:31:42;19.50;99.90
28524;DHT22;15734;50.904;6.922;2022-07-30T08:34:08;19.50;99.90
28524;DHT22;15734;50.904;6.922;2022-07-30T08:36:33;19.50;99.90
28524;DHT22;15734;50.904;6.922;2022-07-30T08:38:59;19.50;99.90
28524;DHT22;15734;50.904;6.922;2022-07-30T08:41:25;19.40;99.90
28524;DHT22;15734;50.904;6.922;2022-07-30T08:43:51;19.40;99.90
28524;DHT22;15734;50.904;6.922;2022-07-30T08:46:18;19.60;99.90
28524;DHT22;15734;50.904;6.922;2022-07-30T08:48:46;19.60;99.90
28524;DHT22;15734;50.904;6.922;2022-07-30T08:51:11;19.70;99.90
28524;DHT22;15734;50.904;6.922;2022-07-30T08:53:39;19.80;99.90
28524;DHT22;15734;50.904;6.922;2022-07-30T08:56:06;19.90;99.90
28524;DHT22;15734;50.904;6.922;2022-07-30T08:58:33;20.10;99.90
28524;DHT22;15734;50.904;6.922;2022-07-30T09:01:00;20.30;99.90
28524;DHT22;15734;50.904;6.922;2022-07-30T09:03:25;20.50;99.90
28524;DHT22;15734;50.904;6.922;2022-07-30T09:05:51;20.70;99.90
28524;DHT22;15734;50.904;6.922;2022-07-30T09:08:17;20.70;99.90
28524;DHT22;15734;50.904;6.922;2022-07-30T09:10:43;20.70;99.90
28524;DHT22;15734;50.904;6.922;2022-07-30T09:13:30;21.00;99.90
28524;DHT22;15734;50.904;6.922;2022-07-30T09:15:57;21.00;99.90
28524;DHT22;15734;50.904;6.922;2022-07-30T09:18:28;20.90;99.90
28524;DHT22;15734;50.904;6.922;2022-07-30T09:20:54;20.90;99.90
28524;DHT22;15734;50.904;6.922;2022-07-30T09:23:20;20.80;99.90
28524;DHT22;15734;50.904;6.922;2022-07-30T09:25:47;20.90;99.90
28524;DHT22;15734;50.904;6.922;2022-07-30T09:28:14;21.10;99.90
28524;DHT22;15734;50.904;6.922;2022-07-30T09:30:52;21.20;99.90
28524;DHT22;15734;50.904;6.922;2022-07-30T09:33:37;21.40;99.90
28524;DHT22;15734;50.904;6.922;2022-07-30T09:36:05;21.30;99.90
28524;DHT22;15734;50.904;6.922;2022-07-30T09:38:50;21.30;99.90
28524;DHT22;15734;50.904;6.922;2022-07-30T09:41:19;21.50;99.90
28524;DHT22;15734;50.904;6.922;2022-07-30T09:43:48;21.70;99.90
28524;DHT22;15734;50.904;6.922;2022-07-30T09:46:14;21.90;99.90
28524;DHT22;15734;50.904;6.922;2022-07-30T09:48:40;21.90;99.90
28524;DHT22;15734;50.904;6.922;2022-07-30T09:51:07;22.00;99.90
28524;DHT22;15734;50.904;6.922;2022-07-30T09:53:33;22.00;99.90
28524;DHT22;15734;50.904;6.922;2022-07-30T09:55:59;22.20;99.90
28524;DHT22;15734;50.904;6.922;2022-07-30T09:58:37;22.40;99.90
28524;DHT22;15734;50.904;6.922;2022-07-30T10:01:04;22.70;99.90
28524;DHT22;15734;50.904;6.922;2022-07-30T10:03:30;22.40;99.90
28524;DHT22;15734;50.904;6.922;2022-07-30T10:05:58;22.20;99.90
28524;DHT22;15734;50.904;6.922;2022-07-30T10:08:44;22.10;99.90
28524;DHT22;15734;50.904;6.922;2022-07-30T10:11:21;22.40;99.90
28524;DHT22;15734;50.904;6.922;2022-07-30T10:13:53;22.50;99.90
28524;DHT22;15734;50.904;6.922;2022-07-30T10:16:20;22.50;99.90
28524;DHT22;15734;50.904;6.922;2022-07-30T10:18:46;22.70;99.90
28524;DHT22;15734;50.904;6.922;2022-07-30T10:21:12;22.70;99.90
28524;DHT22;15734;50.904;6.922;2022-07-30T10:23:39;22.90;99.90
28524;DHT22;15734;50.904;6.922;2022-07-30T10:26:05;23.10;99.90
28524;DHT22;15734;50.904;6.922;2022-07-30T10:28:32;23.20;99.90
28524;DHT22;15734;50.904;6.922;2022-07-30T10:30:58;23.20;99.90
28524;DHT22;15734;50.904;6.922;2022-07-30T10:33:29;23.40;99.90
28524;DHT22;15734;50.904;6.922;2022-07-30T10:35:55;23.50;99.90
28524;DHT22;15734;50.904;6.922;2022-07-30T10:38:26;23.40;99.90
28524;DHT22;15734;50.904;6.922;2022-07-30T10:46:17;23.90;99.90
28524;DHT22;15734;50.904;6.922;2022-07-30T10:48:46;24.40;99.90
28524;DHT22;15734;50.904;6.922;2022-07-30T10:51:12;24.70;99.90
28524;DHT22;15734;50.904;6.922;2022-07-30T10:53:40;24.60;99.90
28524;DHT22;15734;50.904;6.922;2022-07-30T10:56:17;24.50;99.90
28524;DHT22;15734;50.904;6.922;2022-07-30T10:59:06;24.40;99.90
28524;DHT22;15734;50.904;6.922;2022-07-30T11:04:17;24.40;99.90
28524;DHT22;15734;50.904;6.922;2022-07-30T11:06:43;24.70;99.90
28524;DHT22;15734;50.904;6.922;2022-07-30T11:12:00;24.70;99.90
28524;DHT22;15734;50.904;6.922;2022-07-30T11:17:10;25.10;99.90
28524;DHT22;15734;50.904;6.922;2022-07-30T11:22:35;25.40;99.90
28524;DHT22;15734;50.904;6.922;2022-07-30T11:27:49;25.00;99.90
28524;DHT22;15734;50.904;6.922;2022-07-30T11:38:11;25.20;99.90
28524;DHT22;15734;50.904;6.922;2022-07-30T11:43:21;25.20;99.90
28524;DHT22;15734;50.904;6.922;2022-07-30T11:46:04;25.10;99.90
28524;DHT22;15734;50.904;6.922;2022-07-30T11:48:30;25.60;99.90
28524;DHT22;15734;50.904;6.922;2022-07-30T11:50:56;25.90;99.90
28524;DHT22;15734;50.904;6.922;2022-07-30T11:53:22;25.80;99.90
28524;DHT22;15734;50.904;6.922;2022-07-30T11:55:53;26.00;99.90
28524;DHT22;15734;50.904;6.922;2022-07-30T11:58:24;26.20;99.90
28524;DHT22;15734;50.904;6.922;2022-07-30T12:00:50;26.10;99.90
28524;DHT22;15734;50.904;6.922;2022-07-30T12:03:18;26.50;99.90
28524;DHT22;15734;50.904;6.922;2022-07-30T12:05:45;26.50;99.90
28524;DHT22;15734;50.904;6.922;2022-07-30T12:08:11;26.90;99.90
28524;DHT22;15734;50.904;6.922;2022-07-30T12:10:38;26.90;99.90
28524;DHT22;15734;50.904;6.922;2022-07-30T12:13:12;26.70;99.80
28524;DHT22;15734;50.904;6.922;2022-07-30T12:15:40;26.80;99.90
28524;DHT22;15734;50.904;6.922;2022-07-30T12:18:06;26.80;99.90
28524;DHT22;15734;50.904;6.922;2022-07-30T12:20:33;27.10;99.90
28524;DHT22;15734;50.904;6.922;2022-07-30T12:22:59;27.10;99.60
28524;DHT22;15734;50.904;6.922;2022-07-30T12:25:26;26.80;99.90
28524;DHT22;15734;50.904;6.922;2022-07-30T12:27:52;26.90;99.90
28524;DHT22;15734;50.904;6.922;2022-07-30T12:30:19;27.00;99.90
28524;DHT22;15734;50.904;6.922;2022-07-30T12:32:46;27.30;99.60
28524;DHT22;15734;50.904;6.922;2022-07-30T12:35:12;27.30;99.10
28524;DHT22;15734;50.904;6.922;2022-07-30T12:37:38;27.00;98.60
28524;DHT22;15734;50.904;6.922;2022-07-30T12:40:10;27.30;99.10
28524;DHT22;15734;50.904;6.922;2022-07-30T12:42:36;27.10;98.90
28524;DHT22;15734;50.904;6.922;2022-07-30T12:45:03;27.00;99.80
28524;DHT22;15734;50.904;6.922;2022-07-30T12:47:30;27.00;99.90
28524;DHT22;15734;50.904;6.922;2022-07-30T12:50:00;27.30;99.90
28524;DHT22;15734;50.904;6.922;2022-07-30T12:52:32;27.20;99.00
28524;DHT22;15734;50.904;6.922;2022-07-30T12:55:07;26.90;99.30
28524;DHT22;15734;50.904;6.922;2022-07-30T12:57:56;26.70;99.50
28524;DHT22;15734;50.904;6.922;2022-07-30T13:00:24;26.80;99.90
28524;DHT22;15734;50.904;6.922;2022-07-30T13:02:50;26.90;99.60
28524;DHT22;15734;50.904;6.922;2022-07-30T13:05:16;27.40;99.90
28524;DHT22;15734;50.904;6.922;2022-07-30T13:07:58;27.80;98.70
28524;DHT22;15734;50.904;6.922;2022-07-30T13:10:24;27.90;97.70
28524;DHT22;15734;50.904;6.922;2022-07-30T13:12:50;27.30;98.00
28524;DHT22;15734;50.904;6.922;2022-07-30T13:15:21;27.50;97.80
28524;DHT22;15734;50.904;6.922;2022-07-30T13:17:47;27.50;97.80
28524;DHT22;15734;50.904;6.922;2022-07-30T13:20:14;27.60;98.20
28524;DHT22;15734;50.904;6.922;2022-07-30T13:22:40;27.50;98.40
28524;DHT22;15734;50.904;6.922;2022-07-30T13:25:06;28.00;98.10
28524;DHT22;15734;50.904;6.922;2022-07-30T13:27:32;27.80;98.00
28524;DHT22;15734;50.904;6.922;2022-07-30T13:29:57;27.80;98.00
28524;DHT22;15734;50.904;6.922;2022-07-30T13:32:23;28.20;97.70
28524;DHT22;15734;50.904;6.922;2022-07-30T13:34:48;28.40;97.20
28524;DHT22;15734;50.904;6.922;2022-07-30T13:37:14;28.30;96.70
28524;DHT22;15734;50.904;6.922;2022-07-30T13:39:39;28.40;96.60
28524;DHT22;15734;50.904;6.922;2022-07-30T13:42:05;28.60;97.10
28524;DHT22;15734;50.904;6.922;2022-07-30T13:44:30;28.90;96.70
28524;DHT22;15734;50.904;6.922;2022-07-30T13:46:56;28.40;97.50
28524;DHT22;15734;50.904;6.922;2022-07-30T13:49:21;28.00;98.10
28524;DHT22;15734;50.904;6.922;2022-07-30T13:51:47;27.70;98.90
28524;DHT22;15734;50.904;6.922;2022-07-30T13:54:13;27.70;98.70
28524;DHT22;15734;50.904;6.922;2022-07-30T13:56:38;28.10;99.20
28524;DHT22;15734;50.904;6.922;2022-07-30T13:59:04;28.70;98.90
28524;DHT22;15734;50.904;6.922;2022-07-30T14:01:30;29.10;97.70
28524;DHT22;15734;50.904;6.922;2022-07-30T14:03:56;29.20;96.40
28524;DHT22;15734;50.904;6.922;2022-07-30T14:06:22;29.00;96.20
28524;DHT22;15734;50.904;6.922;2022-07-30T14:08:47;28.70;96.60
28524;DHT22;15734;50.904;6.922;2022-07-30T14:11:13;28.70;96.70
28524;DHT22;15734;50.904;6.922;2022-07-30T14:13:39;28.70;96.60
28524;DHT22;15734;50.904;6.922;2022-07-30T14:16:05;28.70;96.00
28524;DHT22;15734;50.904;6.922;2022-07-30T14:18:31;28.80;96.40
28524;DHT22;15734;50.904;6.922;2022-07-30T14:20:57;29.00;96.10
28524;DHT22;15734;50.904;6.922;2022-07-30T14:23:22;29.20;95.30
28524;DHT22;15734;50.904;6.922;2022-07-30T14:25:48;29.30;94.80
28524;DHT22;15734;50.904;6.922;2022-07-30T14:28:14;29.30;95.60
28524;DHT22;15734;50.904;6.922;2022-07-30T14:30:39;29.10;94.50
28524;DHT22;15734;50.904;6.922;2022-07-30T14:33:05;29.00;95.60
28524;DHT22;15734;50.904;6.922;2022-07-30T14:35:30;29.10;94.80
28524;DHT22;15734;50.904;6.922;2022-07-30T14:37:56;28.80;95.10
28524;DHT22;15734;50.904;6.922;2022-07-30T14:40:22;28.80;95.40
28524;DHT22;15734;50.904;6.922;2022-07-30T14:42:47;29.00;95.30
28524;DHT22;15734;50.904;6.922;2022-07-30T14:45:13;29.20;96.30
28524;DHT22;15734;50.904;6.922;2022-07-30T14:47:38;29.20;95.10
28524;DHT22;15734;50.904;6.922;2022-07-30T14:50:05;29.20;95.50
28524;DHT22;15734;50.904;6.922;2022-07-30T14:52:31;29.20;95.50
28524;DHT22;15734;50.904;6.922;2022-07-30T14:55:00;29.40;95.30
28524;DHT22;15734;50.904;6.922;2022-07-30T14:57:25;29.60;95.20
28524;DHT22;15734;50.904;6.922;2022-07-30T14:59:51;29.20;95.20
28524;DHT22;15734;50.904;6.922;2022-07-30T15:02:16;29.30;95.70
28524;DHT22;15734;50.904;6.922;2022-07-30T15:04:42;29.20;95.40
28524;DHT22;15734;50.904;6.922;2022-07-30T15:07:07;29.00;95.50
28524;DHT22;15734;50.904;6.922;2022-07-30T15:09:33;29.10;95.50
28524;DHT22;15734;50.904;6.922;2022-07-30T15:11:58;29.10;95.40
28524;DHT22;15734;50.904;6.922;2022-07-30T15:14:25;28.90;95.60
28524;DHT22;15734;50.904;6.922;2022-07-30T15:16:51;29.00;95.80
28524;DHT22;15734;50.904;6.922;2022-07-30T15:19:17;28.90;96.00
28524;DHT22;15734;50.904;6.922;2022-07-30T15:21:43;29.00;95.50
28524;DHT22;15734;50.904;6.922;2022-07-30T15:24:09;28.70;95.40
28524;DHT22;15734;50.904;6.922;2022-07-30T15:26:35;28.70;95.00
28524;DHT22;15734;50.904;6.922;2022-07-30T15:29:00;28.80;95.40
28524;DHT22;15734;50.904;6.922;2022-07-30T15:31:26;28.90;95.10
28524;DHT22;15734;50.904;6.922;2022-07-30T15:33:52;29.00;94.50
28524;DHT22;15734;50.904;6.922;2022-07-30T15:36:17;29.10;93.90
28524;DHT22;15734;50.904;6.922;2022-07-30T15:38:43;29.00;93.80
28524;DHT22;15734;50.904;6.922;2022-07-30T15:41:09;28.90;94.00
28524;DHT22;15734;50.904;6.922;2022-07-30T15:43:34;28.80;94.20
28524;DHT22;15734;50.904;6.922;2022-07-30T15:46:01;28.60;93.60
28524;DHT22;15734;50.904;6.922;2022-07-30T15:48:26;28.80;93.50
28524;DHT22;15734;50.904;6.922;2022-07-30T15:50:56;29.10;93.50
28524;DHT22;15734;50.904;6.922;2022-07-30T15:53:24;29.20;93.60
28524;DHT22;15734;50.904;6.922;2022-07-30T15:55:50;29.30;93.30
28524;DHT22;15734;50.904;6.922;2022-07-30T15:58:15;28.90;92.00
28524;DHT22;15734;50.904;6.922;2022-07-30T16:00:42;28.90;92.50
28524;DHT22;15734;50.904;6.922;2022-07-30T16:03:07;28.80;93.50
28524;DHT22;15734;50.904;6.922;2022-07-30T16:05:33;29.10;92.40